sensor_id;sensor_type;location;lat;lon;timestamp;pressure;altitude;pressure_sealevel;temperature
21336;BMP180;10826;52.536;13.432;2022-07-12T00:01:19;101654.00;;;23.00
21336;BMP180;10826;52.536;13.432;2022-07-12T00:03:45;101655.00;;;23.00
21336;BMP180;10826;52.536;13.432;2022-07-12T00:06:12;101652.00;;;23.00
21336;BMP180;10826;52.536;13.432;2022-07-12T00:08:38;101663.00;;;22.90
21336;BMP180;10826;52.536;13.432;2022-07-12T00:11:05;101653.00;;;22.90
21336;BMP180;10826;52.536;13.432;2022-07-12T00:13:31;101670.00;;;22.90
21336;BMP180;10826;52.536;13.432;2022-07-12T00:15:57;101666.00;;;22.90
21336;BMP180;10826;52.536;13.432;2022-07-12T00:18:24;101656.00;;;22.90
21336;BMP180;10826;52.536;13.432;2022-07-12T00:20:50;101646.00;;;22.90
21336;BMP180;10826;52.536;13.432;2022-07-12T00:23:17;101673.00;;;22.80
21336;BMP180;10826;52.536;13.432;2022-07-12T00:25:43;101662.00;;;22.80
21336;BMP180;10826;52.536;13.432;2022-07-12T00:28:09;101650.00;;;22.80
21336;BMP180;10826;52.536;13.432;2022-07-12T00:30:35;101676.00;;;22.80
21336;BMP180;10826;52.536;13.432;2022-07-12T00:33:01;101626.00;;;22.80
21336;BMP180;10826;52.536;13.432;2022-07-12T00:35:27;101658.00;;;22.80
21336;BMP180;10826;52.536;13.432;2022-07-12T00:37:53;101655.00;;;22.70
21336;BMP180;10826;52.536;13.432;2022-07-12T00:40:19;101673.00;;;22.70
21336;BMP180;10826;52.536;13.432;2022-07-12T00:42:45;101675.00;;;22.70
21336;BMP180;10826;52.536;13.432;2022-07-12T00:45:11;101682.00;;;22.70
21336;BMP180;10826;52.536;13.432;2022-07-12T00:47:40;101695.00;;;22.70
21336;BMP180;10826;52.536;13.432;2022-07-12T00:50:11;101690.00;;;22.70
21336;BMP180;10826;52.536;13.432;2022-07-12T00:52:38;101673.00;;;22.70
21336;BMP180;10826;52.536;13.432;2022-07-12T00:55:08;101692.00;;;22.70
21336;BMP180;10826;52.536;13.432;2022-07-12T00:57:39;101659.00;;;22.60
21336;BMP180;10826;52.536;13.432;2022-07-12T01:00:08;101656.00;;;22.60
21336;BMP180;10826;52.536;13.432;2022-07-12T01:02:36;101673.00;;;22.50
21336;BMP180;10826;52.536;13.432;2022-07-12T01:05:06;101690.00;;;22.50
21336;BMP180;10826;52.536;13.432;2022-07-12T01:07:33;101674.00;;;22.50
21336;BMP180;10826;52.536;13.432;2022-07-12T01:10:02;101682.00;;;22.50
21336;BMP180;10826;52.536;13.432;2022-07-12T01:12:29;101661.00;;;22.40
21336;BMP180;10826;52.536;13.432;2022-07-12T01:14:56;101662.00;;;22.40
21336;BMP180;10826;52.536;13.432;2022-07-12T01:17:26;101671.00;;;22.40
21336;BMP180;10826;52.536;13.432;2022-07-12T01:19:56;101654.00;;;22.40
21336;BMP180;10826;52.536;13.432;2022-07-12T01:22:29;101686.00;;;22.40
21336;BMP180;10826;52.536;13.432;2022-07-12T01:24:56;101668.00;;;22.30
21336;BMP180;10826;52.536;13.432;2022-07-12T01:27:22;101656.00;;;22.30
21336;BMP180;10826;52.536;13.432;2022-07-12T01:29:48;101676.00;;;22.30
21336;BMP180;10826;52.536;13.432;2022-07-12T01:32:14;101678.00;;;22.20
21336;BMP180;10826;52.536;13.432;2022-07-12T01:34:57;101682.00;;;22.20
21336;BMP180;10826;52.536;13.432;2022-07-12T01:37:28;101692.00;;;22.20
21336;BMP180;10826;52.536;13.432;2022-07-12T01:39:57;101668.00;;;22.10
21336;BMP180;10826;52.536;13.432;2022-07-12T01:42:27;101689.00;;;22.10
21336;BMP180;10826;52.536;13.432;2022-07-12T01:44:54;101676.00;;;22.10
21336;BMP180;10826;52.536;13.432;2022-07-12T01:47:24;101668.00;;;22.10
21336;BMP180;10826;52.536;13.432;2022-07-12T01:49:50;101682.00;;;22.00
21336;BMP180;10826;52.536;13.432;2022-07-12T01:52:19;101685.00;;;22.00
21336;BMP180;10826;52.536;13.432;2022-07-12T01:54:45;101699.00;;;22.00
21336;BMP180;10826;52.536;13.432;2022-07-12T01:57:12;101693.00;;;22.00
21336;BMP180;10826;52.536;13.432;2022-07-12T01:59:39;101698.00;;;22.00
21336;BMP180;10826;52.536;13.432;2022-07-12T02:02:05;101698.00;;;21.90
21336;BMP180;10826;52.536;13.432;2022-07-12T02:04:33;101696.00;;;21.90
21336;BMP180;10826;52.536;13.432;2022-07-12T02:07:00;101699.00;;;21.90
21336;BMP180;10826;52.536;13.432;2022-07-12T02:09:27;101691.00;;;21.80
21336;BMP180;10826;52.536;13.432;2022-07-12T02:11:53;101683.00;;;21.80
21336;BMP180;10826;52.536;13.432;2022-07-12T02:14:20;101683.00;;;21.80
21336;BMP180;10826;52.536;13.432;2022-07-12T02:16:47;101617.00;;;21.80
21336;BMP180;10826;52.536;13.432;2022-07-12T02:19:14;101682.00;;;21.80
21336;BMP180;10826;52.536;13.432;2022-07-12T02:21:40;101707.00;;;21.60
21336;BMP180;10826;52.536;13.432;2022-07-12T02:24:07;101691.00;;;21.70
21336;BMP180;10826;52.536;13.432;2022-07-12T02:26:35;101689.00;;;21.70
21336;BMP180;10826;52.536;13.432;2022-07-12T02:29:02;101704.00;;;21.70
21336;BMP180;10826;52.536;13.432;2022-07-12T02:31:29;101689.00;;;21.60
21336;BMP180;10826;52.536;13.432;2022-07-12T02:33:55;101680.00;;;21.60
21336;BMP180;10826;52.536;13.432;2022-07-12T02:36:20;101705.00;;;21.60
21336;BMP180;10826;52.536;13.432;2022-07-12T02:38:48;101683.00;;;21.60
21336;BMP180;10826;52.536;13.432;2022-07-12T02:41:14;101690.00;;;21.50
21336;BMP180;10826;52.536;13.432;2022-07-12T02:43:39;101682.00;;;21.50
21336;BMP180;10826;52.536;13.432;2022-07-12T02:46:13;101685.00;;;21.50
21336;BMP180;10826;52.536;13.432;2022-07-12T02:48:41;101696.00;;;21.50
21336;BMP180;10826;52.536;13.432;2022-07-12T02:51:07;101694.00;;;21.50
21336;BMP180;10826;52.536;13.432;2022-07-12T02:53:35;101677.00;;;21.40
21336;BMP180;10826;52.536;13.432;2022-07-12T02:56:01;101669.00;;;21.40
21336;BMP180;10826;52.536;13.432;2022-07-12T02:58:27;101679.00;;;21.40
21336;BMP180;10826;52.536;13.432;2022-07-12T03:00:53;101686.00;;;21.40
21336;BMP180;10826;52.536;13.432;2022-07-12T03:03:19;101705.00;;;21.40
21336;BMP180;10826;52.536;13.432;2022-07-12T03:05:46;101710.00;;;21.30
21336;BMP180;10826;52.536;13.432;2022-07-12T03:08:12;101714.00;;;21.30
21336;BMP180;10826;52.536;13.432;2022-07-12T03:10:39;101725.00;;;21.30
21336;BMP180;10826;52.536;13.432;2022-07-12T03:13:06;101721.00;;;21.20
21336;BMP180;10826;52.536;13.432;2022-07-12T03:15:32;101713.00;;;21.30
21336;BMP180;10826;52.536;13.432;2022-07-12T03:18:00;101707.00;;;21.30
21336;BMP180;10826;52.536;13.432;2022-07-12T03:20:30;101729.00;;;21.30
21336;BMP180;10826;52.536;13.432;2022-07-12T03:22:57;101694.00;;;21.30
21336;BMP180;10826;52.536;13.432;2022-07-12T03:25:23;101735.00;;;21.30
21336;BMP180;10826;52.536;13.432;2022-07-12T03:27:50;101719.00;;;21.30
21336;BMP180;10826;52.536;13.432;2022-07-12T03:30:16;101720.00;;;21.30
21336;BMP180;10826;52.536;13.432;2022-07-12T03:32:42;101700.00;;;21.30
21336;BMP180;10826;52.536;13.432;2022-07-12T03:35:08;101729.00;;;21.20
21336;BMP180;10826;52.536;13.432;2022-07-12T03:37:48;101740.00;;;21.30
21336;BMP180;10826;52.536;13.432;2022-07-12T03:40:16;101735.00;;;21.30
21336;BMP180;10826;52.536;13.432;2022-07-12T03:42:43;101730.00;;;21.30
21336;BMP180;10826;52.536;13.432;2022-07-12T03:45:11;101709.00;;;21.30
21336;BMP180;10826;52.536;13.432;2022-07-12T03:47:39;101745.00;;;21.20
21336;BMP180;10826;52.536;13.432;2022-07-12T03:50:13;101737.00;;;21.30
21336;BMP180;10826;52.536;13.432;2022-07-12T03:52:41;101715.00;;;21.20
21336;BMP180;10826;52.536;13.432;2022-07-12T03:55:12;101744.00;;;21.20
21336;BMP180;10826;52.536;13.432;2022-07-12T03:57:38;101756.00;;;21.20
21336;BMP180;10826;52.536;13.432;2022-07-12T04:00:10;101725.00;;;21.30
21336;BMP180;10826;52.536;13.432;2022-07-12T04:02:39;101729.00;;;21.30
21336;BMP180;10826;52.536;13.432;2022-07-12T04:05:07;101755.00;;;21.30
21336;BMP180;10826;52.536;13.432;2022-07-12T04:07:33;101748.00;;;21.30
21336;BMP180;10826;52.536;13.432;2022-07-12T04:09:59;101751.00;;;21.30
21336;BMP180;10826;52.536;13.432;2022-07-12T04:12:25;101706.00;;;21.30
21336;BMP180;10826;52.536;13.432;2022-07-12T04:14:51;101750.00;;;21.30
21336;BMP180;10826;52.536;13.432;2022-07-12T04:17:17;101751.00;;;21.30
21336;BMP180;10826;52.536;13.432;2022-07-12T04:19:43;101747.00;;;21.30
21336;BMP180;10826;52.536;13.432;2022-07-12T04:22:08;101743.00;;;21.30
21336;BMP180;10826;52.536;13.432;2022-07-12T04:24:34;101700.00;;;21.40
21336;BMP180;10826;52.536;13.432;2022-07-12T04:27:01;101735.00;;;21.40
21336;BMP180;10826;52.536;13.432;2022-07-12T04:29:27;101746.00;;;21.40
21336;BMP180;10826;52.536;13.432;2022-07-12T04:31:53;101727.00;;;21.40
21336;BMP180;10826;52.536;13.432;2022-07-12T04:34:18;101731.00;;;21.40
21336;BMP180;10826;52.536;13.432;2022-07-12T04:36:45;101727.00;;;21.40
21336;BMP180;10826;52.536;13.432;2022-07-12T04:39:12;101747.00;;;21.40
21336;BMP180;10826;52.536;13.432;2022-07-12T04:41:38;101746.00;;;21.50
21336;BMP180;10826;52.536;13.432;2022-07-12T04:44:06;101741.00;;;21.50
21336;BMP180;10826;52.536;13.432;2022-07-12T04:46:33;101742.00;;;21.50
21336;BMP180;10826;52.536;13.432;2022-07-12T04:49:00;101729.00;;;21.50
21336;BMP180;10826;52.536;13.432;2022-07-12T04:51:26;101729.00;;;21.30
21336;BMP180;10826;52.536;13.432;2022-07-12T04:53:53;101700.00;;;21.60
21336;BMP180;10826;52.536;13.432;2022-07-12T04:56:18;101745.00;;;21.60
21336;BMP180;10826;52.536;13.432;2022-07-12T04:58:44;101762.00;;;21.60
21336;BMP180;10826;52.536;13.432;2022-07-12T05:01:10;101689.00;;;21.60
21336;BMP180;10826;52.536;13.432;2022-07-12T05:03:36;101740.00;;;21.50
21336;BMP180;10826;52.536;13.432;2022-07-12T05:06:03;101747.00;;;21.70
21336;BMP180;10826;52.536;13.432;2022-07-12T05:08:28;101754.00;;;21.70
21336;BMP180;10826;52.536;13.432;2022-07-12T05:10:55;101755.00;;;21.60
21336;BMP180;10826;52.536;13.432;2022-07-12T05:13:21;101753.00;;;21.80
21336;BMP180;10826;52.536;13.432;2022-07-12T05:15:47;101756.00;;;21.90
21336;BMP180;10826;52.536;13.432;2022-07-12T05:18:13;101748.00;;;21.90
21336;BMP180;10826;52.536;13.432;2022-07-12T05:20:38;101751.00;;;22.00
21336;BMP180;10826;52.536;13.432;2022-07-12T05:23:04;101763.00;;;22.10
21336;BMP180;10826;52.536;13.432;2022-07-12T05:25:30;101754.00;;;22.30
21336;BMP180;10826;52.536;13.432;2022-07-12T05:27:56;101734.00;;;22.40
21336;BMP180;10826;52.536;13.432;2022-07-12T05:30:23;101759.00;;;22.50
21336;BMP180;10826;52.536;13.432;2022-07-12T05:32:49;101764.00;;;22.60
21336;BMP180;10826;52.536;13.432;2022-07-12T05:35:15;101757.00;;;22.80
21336;BMP180;10826;52.536;13.432;2022-07-12T05:37:41;101760.00;;;22.90
21336;BMP180;10826;52.536;13.432;2022-07-12T05:40:07;101769.00;;;23.00
21336;BMP180;10826;52.536;13.432;2022-07-12T05:42:34;101756.00;;;23.10
21336;BMP180;10826;52.536;13.432;2022-07-12T05:44:59;101775.00;;;23.20
21336;BMP180;10826;52.536;13.432;2022-07-12T05:47:25;101776.00;;;23.30
21336;BMP180;10826;52.536;13.432;2022-07-12T05:49:52;101768.00;;;23.40
21336;BMP180;10826;52.536;13.432;2022-07-12T05:52:17;101766.00;;;23.50
21336;BMP180;10826;52.536;13.432;2022-07-12T05:55:03;101753.00;;;23.60
21336;BMP180;10826;52.536;13.432;2022-07-12T05:57:29;101771.00;;;23.80
21336;BMP180;10826;52.536;13.432;2022-07-12T05:59:55;101771.00;;;23.90
21336;BMP180;10826;52.536;13.432;2022-07-12T06:02:22;101771.00;;;23.90
21336;BMP180;10826;52.536;13.432;2022-07-12T06:04:48;101787.00;;;24.00
21336;BMP180;10826;52.536;13.432;2022-07-12T06:07:14;101754.00;;;24.10
21336;BMP180;10826;52.536;13.432;2022-07-12T06:09:40;101771.00;;;24.20
21336;BMP180;10826;52.536;13.432;2022-07-12T06:12:07;101779.00;;;24.30
21336;BMP180;10826;52.536;13.432;2022-07-12T06:14:34;101784.00;;;24.40
21336;BMP180;10826;52.536;13.432;2022-07-12T06:17:00;101799.00;;;24.40
21336;BMP180;10826;52.536;13.432;2022-07-12T06:19:26;101773.00;;;24.50
21336;BMP180;10826;52.536;13.432;2022-07-12T06:21:52;101755.00;;;24.60
21336;BMP180;10826;52.536;13.432;2022-07-12T06:24:18;101781.00;;;24.60
21336;BMP180;10826;52.536;13.432;2022-07-12T06:26:45;101798.00;;;24.60
21336;BMP180;10826;52.536;13.432;2022-07-12T06:29:13;101792.00;;;24.70
21336;BMP180;10826;52.536;13.432;2022-07-12T06:31:39;101778.00;;;24.70
21336;BMP180;10826;52.536;13.432;2022-07-12T06:34:06;101789.00;;;24.80
21336;BMP180;10826;52.536;13.432;2022-07-12T06:36:36;101744.00;;;24.80
21336;BMP180;10826;52.536;13.432;2022-07-12T06:39:06;101775.00;;;24.90
21336;BMP180;10826;52.536;13.432;2022-07-12T06:41:33;101804.00;;;24.90
21336;BMP180;10826;52.536;13.432;2022-07-12T06:44:03;101794.00;;;24.90
21336;BMP180;10826;52.536;13.432;2022-07-12T06:46:30;101785.00;;;24.90
21336;BMP180;10826;52.536;13.432;2022-07-12T06:48:56;101784.00;;;24.90
21336;BMP180;10826;52.536;13.432;2022-07-12T06:51:22;101767.00;;;24.90
21336;BMP180;10826;52.536;13.432;2022-07-12T06:53:48;101779.00;;;25.00
21336;BMP180;10826;52.536;13.432;2022-07-12T06:56:14;101772.00;;;24.90
21336;BMP180;10826;52.536;13.432;2022-07-12T06:58:40;101781.00;;;25.00
21336;BMP180;10826;52.536;13.432;2022-07-12T07:01:07;101772.00;;;25.10
21336;BMP180;10826;52.536;13.432;2022-07-12T07:03:33;101759.00;;;25.20
21336;BMP180;10826;52.536;13.432;2022-07-12T07:05:59;101786.00;;;25.00
21336;BMP180;10826;52.536;13.432;2022-07-12T07:08:25;101738.00;;;25.20
21336;BMP180;10826;52.536;13.432;2022-07-12T07:10:52;101759.00;;;25.30
21336;BMP180;10826;52.536;13.432;2022-07-12T07:13:17;101794.00;;;25.30
21336;BMP180;10826;52.536;13.432;2022-07-12T07:15:44;101757.00;;;25.30
21336;BMP180;10826;52.536;13.432;2022-07-12T07:18:10;101765.00;;;25.40
21336;BMP180;10826;52.536;13.432;2022-07-12T07:20:36;101720.00;;;25.40
21336;BMP180;10826;52.536;13.432;2022-07-12T07:23:02;101771.00;;;25.20
21336;BMP180;10826;52.536;13.432;2022-07-12T07:25:28;101753.00;;;25.50
21336;BMP180;10826;52.536;13.432;2022-07-12T07:27:54;101769.00;;;25.60
21336;BMP180;10826;52.536;13.432;2022-07-12T07:30:20;101763.00;;;25.60
21336;BMP180;10826;52.536;13.432;2022-07-12T07:33:05;101779.00;;;25.60
21336;BMP180;10826;52.536;13.432;2022-07-12T07:35:31;101758.00;;;25.70
21336;BMP180;10826;52.536;13.432;2022-07-12T07:37:57;101769.00;;;25.70
21336;BMP180;10826;52.536;13.432;2022-07-12T07:40:23;101765.00;;;25.70
21336;BMP180;10826;52.536;13.432;2022-07-12T07:42:49;101760.00;;;25.80
21336;BMP180;10826;52.536;13.432;2022-07-12T07:45:15;101780.00;;;25.80
21336;BMP180;10826;52.536;13.432;2022-07-12T07:47:46;101770.00;;;25.90
21336;BMP180;10826;52.536;13.432;2022-07-12T07:50:14;101783.00;;;25.90
21336;BMP180;10826;52.536;13.432;2022-07-12T07:52:41;101738.00;;;25.90
21336;BMP180;10826;52.536;13.432;2022-07-12T07:55:07;101779.00;;;25.90
21336;BMP180;10826;52.536;13.432;2022-07-12T07:57:34;101746.00;;;25.90
21336;BMP180;10826;52.536;13.432;2022-07-12T08:00:00;101767.00;;;26.00
21336;BMP180;10826;52.536;13.432;2022-07-12T08:02:26;101772.00;;;26.00
21336;BMP180;10826;52.536;13.432;2022-07-12T08:04:53;101759.00;;;26.00
21336;BMP180;10826;52.536;13.432;2022-07-12T08:07:19;101771.00;;;26.00
21336;BMP180;10826;52.536;13.432;2022-07-12T08:09:45;101766.00;;;26.10
21336;BMP180;10826;52.536;13.432;2022-07-12T08:12:11;101739.00;;;26.10
21336;BMP180;10826;52.536;13.432;2022-07-12T08:14:37;101777.00;;;26.10
21336;BMP180;10826;52.536;13.432;2022-07-12T08:17:03;101732.00;;;26.20
21336;BMP180;10826;52.536;13.432;2022-07-12T08:19:29;101731.00;;;26.20
21336;BMP180;10826;52.536;13.432;2022-07-12T08:21:56;101755.00;;;26.20
21336;BMP180;10826;52.536;13.432;2022-07-12T08:24:22;101765.00;;;26.30
21336;BMP180;10826;52.536;13.432;2022-07-12T08:26:48;101768.00;;;26.30
21336;BMP180;10826;52.536;13.432;2022-07-12T08:29:15;101763.00;;;26.20
21336;BMP180;10826;52.536;13.432;2022-07-12T08:31:41;101776.00;;;26.40
21336;BMP180;10826;52.536;13.432;2022-07-12T08:34:07;101753.00;;;26.40
21336;BMP180;10826;52.536;13.432;2022-07-12T08:36:33;101753.00;;;26.40
21336;BMP180;10826;52.536;13.432;2022-07-12T08:39:00;101752.00;;;26.40
21336;BMP180;10826;52.536;13.432;2022-07-12T08:41:26;101758.00;;;26.50
21336;BMP180;10826;52.536;13.432;2022-07-12T08:43:52;101712.00;;;26.50
21336;BMP180;10826;52.536;13.432;2022-07-12T08:46:18;101764.00;;;26.50
21336;BMP180;10826;52.536;13.432;2022-07-12T08:48:44;101732.00;;;26.60
21336;BMP180;10826;52.536;13.432;2022-07-12T08:51:20;101736.00;;;26.60
21336;BMP180;10826;52.536;13.432;2022-07-12T08:53:46;101776.00;;;26.70
21336;BMP180;10826;52.536;13.432;2022-07-12T08:56:36;101770.00;;;26.80
21336;BMP180;10826;52.536;13.432;2022-07-12T08:59:21;101756.00;;;26.80
21336;BMP180;10826;52.536;13.432;2022-07-12T09:01:50;101761.00;;;26.80
21336;BMP180;10826;52.536;13.432;2022-07-12T09:04:26;101774.00;;;26.80
21336;BMP180;10826;52.536;13.432;2022-07-12T09:06:53;101747.00;;;26.80
21336;BMP180;10826;52.536;13.432;2022-07-12T09:09:27;101777.00;;;26.90
21336;BMP180;10826;52.536;13.432;2022-07-12T09:11:54;101750.00;;;26.80
21336;BMP180;10826;52.536;13.432;2022-07-12T09:14:20;101773.00;;;26.80
21336;BMP180;10826;52.536;13.432;2022-07-12T09:17:07;101759.00;;;26.90
21336;BMP180;10826;52.536;13.432;2022-07-12T09:19:39;101760.00;;;26.90
21336;BMP180;10826;52.536;13.432;2022-07-12T09:22:14;101762.00;;;27.00
21336;BMP180;10826;52.536;13.432;2022-07-12T09:24:42;101746.00;;;27.00
21336;BMP180;10826;52.536;13.432;2022-07-12T09:27:08;101749.00;;;27.10
21336;BMP180;10826;52.536;13.432;2022-07-12T09:29:50;101762.00;;;27.20
21336;BMP180;10826;52.536;13.432;2022-07-12T09:32:16;101759.00;;;27.20
21336;BMP180;10826;52.536;13.432;2022-07-12T09:35:03;101749.00;;;27.20
21336;BMP180;10826;52.536;13.432;2022-07-12T09:37:48;101755.00;;;27.30
21336;BMP180;10826;52.536;13.432;2022-07-12T09:40:14;101748.00;;;27.30
21336;BMP180;10826;52.536;13.432;2022-07-12T09:42:41;101750.00;;;27.40
21336;BMP180;10826;52.536;13.432;2022-07-12T09:45:09;101738.00;;;27.40
21336;BMP180;10826;52.536;13.432;2022-07-12T09:47:36;101745.00;;;27.40
21336;BMP180;10826;52.536;13.432;2022-07-12T09:50:04;101742.00;;;27.50
21336;BMP180;10826;52.536;13.432;2022-07-12T09:52:37;101747.00;;;27.60
21336;BMP180;10826;52.536;13.432;2022-07-12T09:55:07;101743.00;;;27.70
21336;BMP180;10826;52.536;13.432;2022-07-12T09:57:40;101759.00;;;27.80
21336;BMP180;10826;52.536;13.432;2022-07-12T10:00:10;101747.00;;;27.80
21336;BMP180;10826;52.536;13.432;2022-07-12T10:02:39;101751.00;;;27.70
21336;BMP180;10826;52.536;13.432;2022-07-12T10:05:08;101750.00;;;27.80
21336;BMP180;10826;52.536;13.432;2022-07-12T10:07:38;101743.00;;;27.80
21336;BMP180;10826;52.536;13.432;2022-07-12T10:10:05;101750.00;;;27.80
21336;BMP180;10826;52.536;13.432;2022-07-12T10:12:32;101730.00;;;27.90
21336;BMP180;10826;52.536;13.432;2022-07-12T10:15:04;101743.00;;;27.90
21336;BMP180;10826;52.536;13.432;2022-07-12T10:17:32;101750.00;;;27.90
21336;BMP180;10826;52.536;13.432;2022-07-12T10:20:21;101752.00;;;28.00
21336;BMP180;10826;52.536;13.432;2022-07-12T10:22:49;101741.00;;;28.00
21336;BMP180;10826;52.536;13.432;2022-07-12T10:25:35;101736.00;;;28.10
21336;BMP180;10826;52.536;13.432;2022-07-12T10:28:02;101731.00;;;28.10
21336;BMP180;10826;52.536;13.432;2022-07-12T10:30:30;101737.00;;;28.10
21336;BMP180;10826;52.536;13.432;2022-07-12T10:32:59;101738.00;;;28.20
21336;BMP180;10826;52.536;13.432;2022-07-12T10:35:30;101740.00;;;28.20
21336;BMP180;10826;52.536;13.432;2022-07-12T10:40:39;101729.00;;;28.30
21336;BMP180;10826;52.536;13.432;2022-07-12T10:45:39;101753.00;;;28.40
21336;BMP180;10826;52.536;13.432;2022-07-12T10:48:08;101724.00;;;28.50
21336;BMP180;10826;52.536;13.432;2022-07-12T10:53:23;101747.00;;;28.60
21336;BMP180;10826;52.536;13.432;2022-07-12T10:56:23;101741.00;;;28.70
21336;BMP180;10826;52.536;13.432;2022-07-12T10:58:55;101746.00;;;28.70
21336;BMP180;10826;52.536;13.432;2022-07-12T11:01:28;101744.00;;;28.80
21336;BMP180;10826;52.536;13.432;2022-07-12T11:04:03;101732.00;;;28.80
21336;BMP180;10826;52.536;13.432;2022-07-12T11:06:29;101729.00;;;28.90
21336;BMP180;10826;52.536;13.432;2022-07-12T11:09:07;101715.00;;;29.00
21336;BMP180;10826;52.536;13.432;2022-07-12T11:11:46;101723.00;;;29.20
21336;BMP180;10826;52.536;13.432;2022-07-12T11:14:34;101762.00;;;29.30
21336;BMP180;10826;52.536;13.432;2022-07-12T11:17:00;101748.00;;;29.40
21336;BMP180;10826;52.536;13.432;2022-07-12T11:19:29;101750.00;;;29.50
21336;BMP180;10826;52.536;13.432;2022-07-12T11:21:57;101737.00;;;29.50
21336;BMP180;10826;52.536;13.432;2022-07-12T11:24:29;101754.00;;;29.60
21336;BMP180;10826;52.536;13.432;2022-07-12T11:26:56;101755.00;;;29.60
21336;BMP180;10826;52.536;13.432;2022-07-12T11:29:23;101742.00;;;29.70
21336;BMP180;10826;52.536;13.432;2022-07-12T11:31:59;101747.00;;;29.70
21336;BMP180;10826;52.536;13.432;2022-07-12T11:34:26;101733.00;;;29.70
21336;BMP180;10826;52.536;13.432;2022-07-12T11:36:58;101732.00;;;29.80
21336;BMP180;10826;52.536;13.432;2022-07-12T11:39:37;101742.00;;;29.90
21336;BMP180;10826;52.536;13.432;2022-07-12T11:42:05;101723.00;;;29.90
21336;BMP180;10826;52.536;13.432;2022-07-12T11:44:48;101725.00;;;29.90
21336;BMP180;10826;52.536;13.432;2022-07-12T11:47:18;101751.00;;;29.90
21336;BMP180;10826;52.536;13.432;2022-07-12T11:49:55;101722.00;;;29.90
21336;BMP180;10826;52.536;13.432;2022-07-12T11:52:24;101718.00;;;29.90
21336;BMP180;10826;52.536;13.432;2022-07-12T11:54:52;101730.00;;;29.90
21336;BMP180;10826;52.536;13.432;2022-07-12T11:57:23;101731.00;;;29.90
21336;BMP180;10826;52.536;13.432;2022-07-12T11:59:50;101734.00;;;29.90
21336;BMP180;10826;52.536;13.432;2022-07-12T12:02:16;101733.00;;;29.90
21336;BMP180;10826;52.536;13.432;2022-07-12T12:04:54;101706.00;;;29.90
21336;BMP180;10826;52.536;13.432;2022-07-12T12:07:23;101727.00;;;30.00
21336;BMP180;10826;52.536;13.432;2022-07-12T12:10:17;101704.00;;;30.00
21336;BMP180;10826;52.536;13.432;2022-07-12T12:12:59;101730.00;;;30.00
21336;BMP180;10826;52.536;13.432;2022-07-12T12:15:33;101730.00;;;30.00
21336;BMP180;10826;52.536;13.432;2022-07-12T12:18:04;101731.00;;;30.10
21336;BMP180;10826;52.536;13.432;2022-07-12T12:20:38;101723.00;;;30.10
21336;BMP180;10826;52.536;13.432;2022-07-12T12:23:25;101724.00;;;30.10
21336;BMP180;10826;52.536;13.432;2022-07-12T12:25:52;101714.00;;;30.10
21336;BMP180;10826;52.536;13.432;2022-07-12T12:28:17;101716.00;;;30.20
21336;BMP180;10826;52.536;13.432;2022-07-12T12:30:55;101711.00;;;30.30
21336;BMP180;10826;52.536;13.432;2022-07-12T12:33:48;101729.00;;;30.40
21336;BMP180;10826;52.536;13.432;2022-07-12T12:36:23;101731.00;;;30.40
21336;BMP180;10826;52.536;13.432;2022-07-12T12:38:56;101709.00;;;30.40
21336;BMP180;10826;52.536;13.432;2022-07-12T12:41:25;101718.00;;;30.40
21336;BMP180;10826;52.536;13.432;2022-07-12T12:44:03;101706.00;;;30.50
21336;BMP180;10826;52.536;13.432;2022-07-12T12:46:53;101726.00;;;30.50
21336;BMP180;10826;52.536;13.432;2022-07-12T12:49:49;101725.00;;;30.40
21336;BMP180;10826;52.536;13.432;2022-07-12T12:52:16;101713.00;;;30.30
21336;BMP180;10826;52.536;13.432;2022-07-12T12:54:43;101704.00;;;30.30
21336;BMP180;10826;52.536;13.432;2022-07-12T12:57:12;101698.00;;;30.30
21336;BMP180;10826;52.536;13.432;2022-07-12T12:59:38;101704.00;;;30.30
21336;BMP180;10826;52.536;13.432;2022-07-12T13:02:07;101693.00;;;30.20
21336;BMP180;10826;52.536;13.432;2022-07-12T13:04:36;101676.00;;;30.20
21336;BMP180;10826;52.536;13.432;2022-07-12T13:07:02;101707.00;;;30.20
21336;BMP180;10826;52.536;13.432;2022-07-12T13:09:29;101687.00;;;30.10
21336;BMP180;10826;52.536;13.432;2022-07-12T13:11:56;101686.00;;;30.10
21336;BMP180;10826;52.536;13.432;2022-07-12T13:14:22;101690.00;;;30.10
21336;BMP180;10826;52.536;13.432;2022-07-12T13:16:48;101693.00;;;30.10
21336;BMP180;10826;52.536;13.432;2022-07-12T13:19:15;101693.00;;;30.10
21336;BMP180;10826;52.536;13.432;2022-07-12T13:21:41;101697.00;;;30.20
21336;BMP180;10826;52.536;13.432;2022-07-12T13:24:07;101681.00;;;30.30
21336;BMP180;10826;52.536;13.432;2022-07-12T13:26:34;101682.00;;;30.30
21336;BMP180;10826;52.536;13.432;2022-07-12T13:29:00;101700.00;;;30.30
21336;BMP180;10826;52.536;13.432;2022-07-12T13:31:25;101700.00;;;30.30
21336;BMP180;10826;52.536;13.432;2022-07-12T13:33:55;101698.00;;;30.30
21336;BMP180;10826;52.536;13.432;2022-07-12T13:36:22;101696.00;;;30.30
21336;BMP180;10826;52.536;13.432;2022-07-12T13:38:49;101691.00;;;30.30
21336;BMP180;10826;52.536;13.432;2022-07-12T13:41:14;101698.00;;;30.30
21336;BMP180;10826;52.536;13.432;2022-07-12T13:43:40;101689.00;;;30.20
21336;BMP180;10826;52.536;13.432;2022-07-12T13:46:06;101679.00;;;30.20
21336;BMP180;10826;52.536;13.432;2022-07-12T13:48:33;101664.00;;;30.20
21336;BMP180;10826;52.536;13.432;2022-07-12T13:51:01;101699.00;;;30.30
21336;BMP180;10826;52.536;13.432;2022-07-12T13:53:27;101667.00;;;30.30
21336;BMP180;10826;52.536;13.432;2022-07-12T13:55:54;101666.00;;;30.30
21336;BMP180;10826;52.536;13.432;2022-07-12T13:58:20;101676.00;;;30.30
21336;BMP180;10826;52.536;13.432;2022-07-12T14:00:45;101685.00;;;30.30